createdAt,value
2022-08-31T00:00:19.786Z,100104.59
2022-08-31T00:01:22.303Z,100108.11
2022-08-31T00:02:24.382Z,100112.04
2022-08-31T00:03:26.406Z,100109.83
2022-08-31T00:04:28.558Z,100102.76
2022-08-31T00:05:30.476Z,100113.75
2022-08-31T00:06:33.438Z,100116.30
2022-08-31T00:07:36.003Z,100109.36
2022-08-31T00:08:40.143Z,100116.42
2022-08-31T00:09:42.390Z,100115.30
2022-08-31T00:10:45.071Z,100124.16
2022-08-31T00:11:47.827Z,100112.50
2022-08-31T00:12:50.006Z,100112.38
2022-08-31T00:13:52.383Z,100113.75
2022-08-31T00:14:54.321Z,100116.55
2022-08-31T00:15:56.363Z,100115.09
2022-08-31T00:16:58.865Z,100115.94
2022-08-31T00:18:01.250Z,100113.39
2022-08-31T00:19:03.330Z,100118.15
2022-08-31T00:20:06.596Z,100120.36
2022-08-31T00:21:08.602Z,100123.75
2022-08-31T00:22:10.711Z,100113.80
2022-08-31T00:23:13.601Z,100125.97
2022-08-31T00:24:15.672Z,100112.38
2022-08-31T00:25:17.768Z,100122.70
2022-08-31T00:26:20.800Z,100120.41
2022-08-31T00:27:23.195Z,100106.32
2022-08-31T00:28:25.212Z,100118.81
2022-08-31T00:29:27.447Z,100114.75
2022-08-31T00:30:31.087Z,100113.12
2022-08-31T00:31:33.160Z,100117.02
2022-08-31T00:32:35.670Z,100109.83
2022-08-31T00:33:38.456Z,100110.92
2022-08-31T00:34:40.410Z,100118.23
2022-08-31T00:35:44.564Z,100113.72
2022-08-31T00:36:46.758Z,100109.62
2022-08-31T00:37:48.875Z,100109.49
2022-08-31T00:38:50.862Z,100109.49
2022-08-31T00:39:52.978Z,100105.33
2022-08-31T00:40:55.237Z,100111.17
2022-08-31T00:41:57.660Z,100118.48
2022-08-31T00:43:00.094Z,100116.52
2022-08-31T00:44:04.125Z,100115.68
2022-08-31T00:45:07.438Z,100114.84
2022-08-31T00:46:11.319Z,100113.97
2022-08-31T00:47:13.534Z,100112.75
2022-08-31T00:48:15.545Z,100116.52
2022-08-31T00:49:19.261Z,100114.59
2022-08-31T00:50:23.952Z,100114.97
2022-08-31T00:51:27.234Z,100112.88
2022-08-31T00:52:33.320Z,100115.55
2022-08-31T00:53:35.905Z,100096.75
2022-08-31T00:54:42.641Z,100115.21
2022-08-31T00:55:44.886Z,100107.84
2022-08-31T00:56:47.149Z,100114.80
2022-08-31T00:57:51.005Z,100116.82
2022-08-31T00:58:54.362Z,100110.98
2022-08-31T00:59:58.807Z,100118.04
2022-08-31T01:01:02.854Z,100115.13
2022-08-31T01:02:05.400Z,100111.98
2022-08-31T01:03:08.520Z,100116.82
2022-08-31T01:04:10.885Z,100117.69
2022-08-31T01:05:13.596Z,100114.03
2022-08-31T01:06:17.256Z,100118.28
2022-08-31T01:07:19.444Z,100117.33
2022-08-31T01:08:21.602Z,100123.04
2022-08-31T01:09:26.310Z,100118.06
2022-08-31T01:10:30.742Z,100115.76
2022-08-31T01:11:33.695Z,100114.67
2022-08-31T01:12:36.166Z,100113.21
2022-08-31T01:13:38.596Z,100113.44
2022-08-31T01:14:41.190Z,100115.39
2022-08-31T01:15:44.960Z,100116.11
2022-08-31T01:16:49.250Z,100117.59
2022-08-31T01:17:53.040Z,100119.52
2022-08-31T01:18:56.560Z,100120.64
2022-08-31T01:20:03.435Z,100120.39
2022-08-31T01:21:07.394Z,100112.49
2022-08-31T01:22:17.388Z,100118.31
2022-08-31T01:23:21.326Z,100115.64
2022-08-31T01:24:24.267Z,100107.50
2022-08-31T01:25:33.353Z,100109.33
2022-08-31T01:26:32.545Z,100109.20
2022-08-31T01:27:35.506Z,100116.23
2022-08-31T01:28:37.503Z,100114.15
2022-08-31T01:29:39.750Z,100118.87
2022-08-31T01:30:42.929Z,100104.20
2022-08-31T01:31:46.268Z,100118.41
2022-08-31T01:32:48.798Z,100117.45
2022-08-31T01:33:50.809Z,100105.52
2022-08-31T01:34:52.962Z,100114.41
2022-08-31T01:35:55.742Z,100110.91
2022-08-31T01:36:58.194Z,100121.22
2022-08-31T01:38:00.978Z,100125.50
2022-08-31T01:39:03.763Z,100118.20
2022-08-31T01:40:06.253Z,100120.39
2022-08-31T01:41:08.260Z,100117.61
2022-08-31T01:42:10.400Z,100119.76
2022-08-31T01:43:12.515Z,100118.80
2022-08-31T01:44:16.462Z,100116.13
2022-08-31T01:45:18.616Z,100116.96
2022-08-31T01:46:21.103Z,100114.94
2022-08-31T01:47:23.226Z,100113.34
2022-08-31T01:48:26.614Z,100116.27
2022-08-31T01:49:28.810Z,100116.73
2022-08-31T01:50:32.638Z,100108.13
2022-08-31T01:51:34.689Z,100119.89
2022-08-31T01:52:37.330Z,100120.17
2022-08-31T01:53:40.235Z,100109.93
2022-08-31T01:54:43.975Z,100119.30
2022-08-31T01:55:45.935Z,100115.52
2022-08-31T01:56:48.551Z,100120.62
2022-08-31T01:57:50.630Z,100116.11
2022-08-31T01:58:52.926Z,100115.04
2022-08-31T01:59:55.000Z,100113.92
2022-08-31T02:00:57.657Z,100114.64
2022-08-31T02:02:00.071Z,100113.92
2022-08-31T02:03:03.959Z,100111.50
2022-08-31T02:04:07.207Z,100111.62
2022-08-31T02:05:09.396Z,100109.81
2022-08-31T02:06:12.474Z,100108.95
2022-08-31T02:07:14.519Z,100116.83
2022-08-31T02:08:16.896Z,100113.09
2022-08-31T02:09:19.611Z,100106.88
2022-08-31T02:10:23.019Z,100111.37
2022-08-31T02:11:25.060Z,100110.05
2022-08-31T02:12:27.094Z,100107.14
2022-08-31T02:13:29.244Z,100116.59
2022-08-31T02:14:31.298Z,100111.61
2022-08-31T02:15:34.767Z,100109.06
2022-08-31T02:16:37.225Z,100087.70
2022-08-31T02:17:39.536Z,100100.45
2022-08-31T02:18:41.927Z,100099.49
2022-08-31T02:19:44.006Z,100105.07
2022-08-31T02:20:46.086Z,100106.27
2022-08-31T02:21:48.070Z,100105.19
2022-08-31T02:22:50.423Z,100102.52
2022-08-31T02:23:52.544Z,100102.52
2022-08-31T02:24:54.662Z,100100.57
2022-08-31T02:25:56.847Z,100105.31
2022-08-31T02:26:59.206Z,100103.23
2022-08-31T02:28:01.481Z,100099.97
2022-08-31T02:29:04.018Z,100096.19
2022-08-31T02:30:08.200Z,100105.19
2022-08-31T02:31:10.198Z,100104.32
2022-08-31T02:32:19.442Z,100099.97
2022-08-31T02:33:16.569Z,100105.78
2022-08-31T02:34:18.814Z,100101.05
2022-08-31T02:35:20.908Z,100103.72
2022-08-31T02:36:23.643Z,100106.62
2022-08-31T02:37:26.813Z,100094.03
2022-08-31T02:38:30.341Z,100106.39
2022-08-31T02:39:32.374Z,100097.66
2022-08-31T02:40:34.966Z,100099.48
2022-08-31T02:41:37.105Z,100099.37
2022-08-31T02:42:52.938Z,100099.09
2022-08-31T02:43:43.422Z,100095.34
2022-08-31T02:44:45.422Z,100097.18
2022-08-31T02:45:50.980Z,100093.52
2022-08-31T02:46:51.696Z,100099.38
2022-08-31T02:47:53.911Z,100101.30
2022-08-31T02:48:55.887Z,100102.05
2022-08-31T02:49:57.958Z,100096.06
2022-08-31T02:51:07.699Z,100104.20
2022-08-31T02:52:09.701Z,100110.41
2022-08-31T02:53:12.815Z,100102.16
2022-08-31T02:54:15.079Z,100102.04
2022-08-31T02:55:17.117Z,100096.81
2022-08-31T02:56:20.252Z,100097.08
2022-08-31T02:57:22.425Z,100091.11
2022-08-31T02:58:24.410Z,100098.80
2022-08-31T02:59:26.412Z,100091.97
2022-08-31T03:00:28.999Z,100098.40
2022-08-31T03:01:31.370Z,100090.77
2022-08-31T03:02:33.651Z,100097.19
2022-08-31T03:03:36.631Z,100095.48
2022-08-31T03:04:39.391Z,100090.91
2022-08-31T03:05:41.926Z,100096.58
2022-08-31T03:06:44.189Z,100092.19
2022-08-31T03:07:46.374Z,100084.55
2022-08-31T03:08:48.817Z,100100.81
2022-08-31T03:09:50.856Z,100094.99
2022-08-31T03:10:53.806Z,100097.66
2022-08-31T03:11:57.161Z,100094.52
2022-08-31T03:12:59.097Z,100097.30
2022-08-31T03:14:01.215Z,100101.17
2022-08-31T03:15:05.357Z,100099.09
2022-08-31T03:16:08.147Z,100098.86
2022-08-31T03:17:10.206Z,100099.09
2022-08-31T03:18:12.438Z,100099.37
2022-08-31T03:19:14.444Z,100094.50
2022-08-31T03:20:20.423Z,100092.06
2022-08-31T03:21:22.528Z,100095.21
2022-08-31T03:22:25.031Z,100096.42
2022-08-31T03:23:27.287Z,100094.02
2022-08-31T03:24:29.402Z,100088.68
2022-08-31T03:25:31.438Z,100094.61
2022-08-31T03:26:33.763Z,100094.37
2022-08-31T03:27:36.337Z,100094.98
2022-08-31T03:28:38.367Z,100102.03
2022-08-31T03:29:40.685Z,100098.60
2022-08-31T03:30:42.854Z,100095.94
2022-08-31T03:31:45.407Z,100101.63
2022-08-31T03:32:48.044Z,100101.84
2022-08-31T03:33:50.447Z,100101.81
2022-08-31T03:34:54.146Z,100104.91
2022-08-31T03:35:56.155Z,100105.86
2022-08-31T03:36:58.325Z,100106.62
2022-08-31T03:38:00.296Z,100100.22
2022-08-31T03:39:02.553Z,100103.61
2022-08-31T03:40:05.852Z,100106.62
2022-08-31T03:41:08.073Z,100105.63
2022-08-31T03:42:10.241Z,100100.22
2022-08-31T03:43:13.666Z,100102.69
2022-08-31T03:44:15.645Z,100098.56
2022-08-31T03:45:17.909Z,100101.37
2022-08-31T03:46:20.256Z,100098.84
2022-08-31T03:47:22.582Z,100087.67
2022-08-31T03:48:25.503Z,100108.81
2022-08-31T03:49:27.558Z,100100.69
2022-08-31T03:50:30.299Z,100109.65
2022-08-31T03:51:32.284Z,100113.91
2022-08-31T03:52:34.655Z,100101.04
2022-08-31T03:53:36.645Z,100110.52
2022-08-31T03:54:38.701Z,100104.70
2022-08-31T03:55:41.439Z,100107.63
2022-08-31T03:56:43.841Z,100110.05
2022-08-31T03:57:46.009Z,100110.53
2022-08-31T03:58:48.175Z,100102.77
2022-08-31T03:59:54.215Z,100110.53
2022-08-31T04:00:56.580Z,100102.76
2022-08-31T04:01:59.046Z,100103.02
2022-08-31T04:03:01.376Z,100099.86
2022-08-31T04:04:04.249Z,100108.13
2022-08-31T04:05:07.708Z,100099.74
2022-08-31T04:06:11.746Z,100105.68
2022-08-31T04:07:14.043Z,100103.60
2022-08-31T04:08:17.074Z,100100.81
2022-08-31T04:09:19.286Z,100102.88
2022-08-31T04:10:21.886Z,100100.93
2022-08-31T04:11:40.533Z,100104.35
2022-08-31T04:12:28.198Z,100102.16
2022-08-31T04:13:30.467Z,100104.11
2022-08-31T04:14:32.612Z,100097.16
2022-08-31T04:15:38.158Z,100096.66
2022-08-31T04:16:40.694Z,100098.08
2022-08-31T04:17:43.944Z,100094.54
2022-08-31T04:18:46.290Z,100098.55
2022-08-31T04:19:48.470Z,100092.08
2022-08-31T04:20:50.779Z,100094.37
2022-08-31T04:21:53.145Z,100089.73
2022-08-31T04:22:55.411Z,100091.06
2022-08-31T04:23:58.072Z,100095.91
2022-08-31T04:25:00.125Z,100096.24
2022-08-31T04:26:02.583Z,100097.41
2022-08-31T04:27:04.651Z,100093.89
2022-08-31T04:28:07.267Z,100094.34
2022-08-31T04:29:13.149Z,100100.31
2022-08-31T04:30:14.531Z,100099.06
2022-08-31T04:31:17.432Z,100104.47
2022-08-31T04:32:20.298Z,100100.80
2022-08-31T04:33:22.179Z,100099.03
2022-08-31T04:34:24.151Z,100098.91
2022-08-31T04:35:26.021Z,100100.61
2022-08-31T04:36:28.583Z,100104.70
2022-08-31T04:37:30.879Z,100097.16
2022-08-31T04:38:33.455Z,100106.86
2022-08-31T04:39:35.859Z,100108.34
2022-08-31T04:40:41.003Z,100109.48
2022-08-31T04:41:43.441Z,100103.34
2022-08-31T04:42:46.741Z,100101.06
2022-08-31T04:43:50.359Z,100107.52
2022-08-31T04:44:52.432Z,100107.70
2022-08-31T04:45:54.478Z,100109.28
2022-08-31T04:46:56.652Z,100114.89
2022-08-31T04:47:58.624Z,100107.23
2022-08-31T04:49:00.702Z,100112.06
2022-08-31T04:50:03.410Z,100116.19
2022-08-31T04:51:07.271Z,100111.67
2022-08-31T04:52:09.425Z,100108.87
2022-08-31T04:53:11.688Z,100110.63
2022-08-31T04:54:13.731Z,100113.17
2022-08-31T04:55:16.248Z,100104.69
2022-08-31T04:56:20.229Z,100102.94
2022-08-31T04:57:22.493Z,100102.85
2022-08-31T04:58:24.627Z,100113.21
2022-08-31T04:59:26.897Z,100110.27
2022-08-31T05:00:29.546Z,100107.05
2022-08-31T05:01:36.222Z,100104.81
2022-08-31T05:02:37.099Z,100104.41
2022-08-31T05:03:39.286Z,100101.45
2022-08-31T05:04:41.452Z,100103.27
2022-08-31T05:05:43.516Z,100112.58
2022-08-31T05:06:46.470Z,100104.57
2022-08-31T05:07:48.415Z,100109.02
2022-08-31T05:08:54.822Z,100103.95
2022-08-31T05:09:58.105Z,100112.31
2022-08-31T05:11:02.179Z,100109.72
2022-08-31T05:12:04.417Z,100114.02
2022-08-31T05:13:06.619Z,100114.58
2022-08-31T05:14:09.068Z,100110.07
2022-08-31T05:15:11.055Z,100114.59
2022-08-31T05:16:13.987Z,100106.41
2022-08-31T05:17:16.649Z,100107.27
2022-08-31T05:18:18.733Z,100112.05
2022-08-31T05:19:20.741Z,100107.84
2022-08-31T05:20:24.405Z,100107.84
2022-08-31T05:21:28.490Z,100103.59
2022-08-31T05:22:30.614Z,100114.20
2022-08-31T05:23:32.863Z,100102.69
2022-08-31T05:24:34.805Z,100104.30
2022-08-31T05:25:37.971Z,100111.43
2022-08-31T05:26:42.291Z,100099.09
2022-08-31T05:27:44.696Z,100108.34
2022-08-31T05:28:47.070Z,100115.28
2022-08-31T05:29:49.161Z,100108.02
2022-08-31T05:30:51.435Z,100093.29
2022-08-31T05:31:53.936Z,100104.64
2022-08-31T05:32:58.186Z,100115.52
2022-08-31T05:34:00.461Z,100100.22
2022-08-31T05:35:02.399Z,100112.16
2022-08-31T05:36:04.709Z,100110.20
2022-08-31T05:37:06.688Z,100116.23
2022-08-31T05:38:08.645Z,100113.18
2022-08-31T05:39:11.278Z,100108.02
2022-08-31T05:40:13.808Z,100111.22
2022-08-31T05:41:16.097Z,100108.02
2022-08-31T05:42:18.168Z,100108.39
2022-08-31T05:43:21.098Z,100105.02
2022-08-31T05:44:23.674Z,100097.79
2022-08-31T05:45:26.782Z,100103.39
2022-08-31T05:46:29.085Z,100046.58
2022-08-31T05:47:31.063Z,100099.58
2022-08-31T05:48:33.440Z,100102.00
2022-08-31T05:49:35.669Z,100106.80
2022-08-31T05:50:37.912Z,100101.63
2022-08-31T05:51:40.158Z,100098.20
2022-08-31T05:52:42.915Z,100102.20
2022-08-31T05:53:44.885Z,100092.33
2022-08-31T05:54:46.891Z,100098.03
2022-08-31T05:55:48.846Z,100099.67
2022-08-31T05:56:51.054Z,100106.67
2022-08-31T05:57:53.023Z,100100.94
2022-08-31T05:58:55.282Z,100097.48
2022-08-31T05:59:58.704Z,100102.59
2022-08-31T06:01:02.390Z,100099.91
2022-08-31T06:02:04.701Z,100108.79
2022-08-31T06:03:06.802Z,100103.80
2022-08-31T06:04:08.935Z,100108.29
2022-08-31T06:05:10.938Z,100103.42
2022-08-31T06:06:14.171Z,100113.86
2022-08-31T06:07:16.140Z,100110.23
2022-08-31T06:08:19.029Z,100117.36
2022-08-31T06:09:23.083Z,100111.84
2022-08-31T06:10:25.462Z,100107.61
2022-08-31T06:11:28.745Z,100117.49
2022-08-31T06:12:30.742Z,100110.64
2022-08-31T06:13:32.912Z,100112.05
2022-08-31T06:14:35.008Z,100105.61
2022-08-31T06:15:42.286Z,100107.31
2022-08-31T06:16:42.390Z,100104.58
2022-08-31T06:17:44.431Z,100102.06
2022-08-31T06:18:46.394Z,100106.13
2022-08-31T06:19:48.510Z,100104.78
2022-08-31T06:20:52.442Z,100104.95
2022-08-31T06:21:55.144Z,100106.30
2022-08-31T06:22:57.222Z,100105.63
2022-08-31T06:24:00.250Z,100104.95
2022-08-31T06:25:03.112Z,100101.24
2022-08-31T06:26:06.261Z,100106.48
2022-08-31T06:27:08.203Z,100104.61
2022-08-31T06:28:10.160Z,100109.34
2022-08-31T06:29:12.100Z,100102.04
2022-08-31T06:30:14.621Z,100102.54
2022-08-31T06:31:18.392Z,100104.45
2022-08-31T06:32:21.593Z,100102.96
2022-08-31T06:33:23.707Z,100105.16
2022-08-31T06:34:25.959Z,100107.98
2022-08-31T06:35:28.465Z,100110.83
2022-08-31T06:36:30.717Z,100108.33
2022-08-31T06:37:32.661Z,100108.27
2022-08-31T06:38:34.617Z,100115.06
2022-08-31T06:39:36.660Z,100112.36
2022-08-31T06:40:38.780Z,100110.52
2022-08-31T06:41:40.903Z,100114.73
2022-08-31T06:42:43.529Z,100112.03
2022-08-31T06:43:46.200Z,100121.18
2022-08-31T06:44:49.078Z,100114.36
2022-08-31T06:45:51.072Z,100105.39
2022-08-31T06:46:53.239Z,100110.00
2022-08-31T06:47:55.263Z,100116.28
2022-08-31T06:48:57.323Z,100114.08
2022-08-31T06:49:59.476Z,100111.31
2022-08-31T06:51:01.815Z,100110.38
2022-08-31T06:52:03.780Z,100114.21
2022-08-31T06:53:05.742Z,100117.02
2022-08-31T06:54:27.867Z,100113.75
2022-08-31T06:55:12.515Z,100114.02
2022-08-31T06:56:20.838Z,100116.59
2022-08-31T06:57:21.035Z,100116.27
2022-08-31T06:58:23.013Z,100113.37
2022-08-31T06:59:28.887Z,100113.52
2022-08-31T07:00:29.602Z,100115.08
2022-08-31T07:01:35.635Z,100117.25
2022-08-31T07:02:37.580Z,100106.60
2022-08-31T07:03:40.327Z,100115.73
2022-08-31T07:04:45.435Z,100122.33
2022-08-31T07:05:47.424Z,100120.60
2022-08-31T07:06:49.515Z,100121.42
2022-08-31T07:07:51.501Z,100112.33
2022-08-31T07:08:55.361Z,100115.06
2022-08-31T07:09:57.482Z,100111.73
2022-08-31T07:10:59.638Z,100109.67
2022-08-31T07:12:01.758Z,100108.95
2022-08-31T07:13:03.798Z,100111.70
2022-08-31T07:14:06.481Z,100111.72
2022-08-31T07:15:08.784Z,100112.91
2022-08-31T07:16:12.639Z,100107.63
2022-08-31T07:17:14.884Z,100112.86
2022-08-31T07:18:16.862Z,100107.72
2022-08-31T07:19:19.057Z,100108.61
2022-08-31T07:20:22.920Z,100115.89
2022-08-31T07:21:26.782Z,100105.59
2022-08-31T07:22:28.862Z,100108.46
2022-08-31T07:23:30.971Z,100104.00
2022-08-31T07:24:33.109Z,100111.17
2022-08-31T07:25:36.256Z,100116.97
2022-08-31T07:26:40.160Z,100110.53
2022-08-31T07:27:42.137Z,100107.83
2022-08-31T07:28:46.023Z,100100.75
2022-08-31T07:29:48.015Z,100107.47
2022-08-31T07:30:50.307Z,100108.27
2022-08-31T07:31:52.503Z,100104.44
2022-08-31T07:32:56.344Z,100095.09
2022-08-31T07:33:58.299Z,100109.59
2022-08-31T07:35:01.034Z,100103.84
2022-08-31T07:36:04.342Z,100101.59
2022-08-31T07:37:06.384Z,100105.53
2022-08-31T07:38:08.370Z,100106.95
2022-08-31T07:39:10.366Z,100116.23
2022-08-31T07:40:12.526Z,100118.23
2022-08-31T07:41:15.230Z,100108.16
2022-08-31T07:42:21.042Z,100110.02
2022-08-31T07:43:23.630Z,100117.79
2022-08-31T07:44:25.608Z,100108.98
2022-08-31T07:45:30.693Z,100113.34
2022-08-31T07:46:32.394Z,100110.49
2022-08-31T07:47:34.405Z,100107.95
2022-08-31T07:48:37.084Z,100115.48
2022-08-31T07:49:39.896Z,100116.28
2022-08-31T07:50:42.025Z,100113.50
2022-08-31T07:51:45.896Z,100118.31
2022-08-31T07:52:48.921Z,100118.19
2022-08-31T07:53:51.533Z,100109.30
2022-08-31T07:54:55.432Z,100102.59
2022-08-31T07:55:57.713Z,100107.64
2022-08-31T07:57:00.044Z,100105.25
2022-08-31T07:58:02.239Z,100106.53
2022-08-31T07:59:04.253Z,100102.53
2022-08-31T08:00:07.061Z,100090.72
2022-08-31T08:01:10.186Z,100088.16
2022-08-31T08:02:17.062Z,100085.34
2022-08-31T08:03:16.436Z,100083.48
2022-08-31T08:04:18.553Z,100095.59
2022-08-31T08:05:22.494Z,100093.80
2022-08-31T08:06:29.011Z,100093.29
2022-08-31T08:07:33.642Z,100099.03
2022-08-31T08:08:35.856Z,100103.25
2022-08-31T08:09:37.831Z,100093.45
2022-08-31T08:10:41.411Z,100092.45
2022-08-31T08:11:44.566Z,100097.80
2022-08-31T08:12:48.326Z,100098.52
2022-08-31T08:13:52.124Z,100097.86
2022-08-31T08:14:58.135Z,100084.69
2022-08-31T08:16:00.243Z,100088.20
2022-08-31T08:17:04.099Z,100093.16
2022-08-31T08:18:06.073Z,100092.73
2022-08-31T08:19:08.086Z,100091.44
2022-08-31T08:20:13.715Z,100103.75
2022-08-31T08:21:14.478Z,100083.69
2022-08-31T08:22:35.673Z,100094.99
2022-08-31T08:23:28.006Z,100086.55
2022-08-31T08:24:26.114Z,100092.00
2022-08-31T08:25:28.063Z,100089.30
2022-08-31T08:26:30.590Z,100089.27
2022-08-31T08:27:33.188Z,100092.58
2022-08-31T08:28:39.595Z,100086.72
2022-08-31T08:29:39.680Z,100078.94
2022-08-31T08:30:43.508Z,100084.45
2022-08-31T08:31:47.609Z,100084.34
2022-08-31T08:32:49.620Z,100079.28
2022-08-31T08:33:51.909Z,100076.92
2022-08-31T08:34:53.979Z,100065.70
2022-08-31T08:35:57.159Z,100073.84
2022-08-31T08:36:59.446Z,100077.08
2022-08-31T08:38:07.031Z,100076.23
2022-08-31T08:39:06.520Z,100077.23
2022-08-31T08:40:10.540Z,100091.27
2022-08-31T08:41:14.285Z,100085.08
2022-08-31T08:42:17.128Z,100083.23
2022-08-31T08:43:20.931Z,100080.23
2022-08-31T08:44:24.663Z,100079.80
2022-08-31T08:45:26.729Z,100076.82
2022-08-31T08:46:37.227Z,100074.20
2022-08-31T08:47:39.493Z,100077.59
2022-08-31T08:48:42.790Z,100077.92
2022-08-31T08:49:50.912Z,100071.49
2022-08-31T08:50:51.628Z,100062.98
2022-08-31T08:51:55.376Z,100070.81
2022-08-31T08:52:59.103Z,100057.58
2022-08-31T08:54:02.823Z,100071.34
2022-08-31T08:55:06.675Z,100072.10
2022-08-31T08:56:31.837Z,100072.10
2022-08-31T08:57:17.819Z,100070.98
2022-08-31T08:58:19.811Z,100065.09
2022-08-31T08:59:21.739Z,100064.41
2022-08-31T09:00:26.891Z,100067.30
2022-08-31T09:01:28.940Z,100069.14
2022-08-31T09:02:38.655Z,100068.16
2022-08-31T09:03:45.525Z,100068.13
2022-08-31T09:04:49.558Z,100063.91
2022-08-31T09:05:53.428Z,100067.67
2022-08-31T09:07:06.170Z,100060.16
2022-08-31T09:08:18.924Z,100051.86
2022-08-31T09:09:34.747Z,100054.59
2022-08-31T09:10:38.574Z,100052.58
2022-08-31T09:11:42.408Z,100055.11
2022-08-31T09:12:46.211Z,100052.19
2022-08-31T09:14:06.725Z,100055.46
2022-08-31T09:15:25.571Z,100047.53
2022-08-31T09:16:29.422Z,100053.00
2022-08-31T09:17:48.423Z,100049.88
2022-08-31T09:18:58.082Z,100058.31
2022-08-31T09:20:00.056Z,100042.59
2022-08-31T09:21:09.570Z,100058.69
2022-08-31T09:22:11.616Z,100073.36
2022-08-31T09:23:13.688Z,100078.59
2022-08-31T09:24:17.247Z,100072.18
2022-08-31T09:25:20.992Z,100060.71
2022-08-31T09:26:23.718Z,100077.08
2022-08-31T09:27:27.468Z,100072.20
2022-08-31T09:28:40.103Z,100077.77
2022-08-31T09:29:42.449Z,100082.33
2022-08-31T09:30:46.301Z,100074.55
2022-08-31T09:31:48.360Z,100077.25
2022-08-31T09:32:52.074Z,100084.02
2022-08-31T09:33:54.095Z,100082.31
2022-08-31T09:34:57.806Z,100075.39
2022-08-31T09:36:16.989Z,100074.05
2022-08-31T09:37:20.426Z,100080.31
2022-08-31T09:38:29.340Z,100073.53
2022-08-31T09:39:33.099Z,100076.22
2022-08-31T09:40:40.893Z,100076.92
2022-08-31T09:41:43.455Z,100072.86
2022-08-31T09:42:47.217Z,100074.00
2022-08-31T09:43:50.485Z,100076.79
2022-08-31T09:44:52.721Z,100066.97
2022-08-31T09:45:59.369Z,100066.69
2022-08-31T09:47:03.252Z,100057.05
2022-08-31T09:48:06.605Z,100062.30
2022-08-31T09:49:10.462Z,100064.00
2022-08-31T09:50:27.224Z,100057.59
2022-08-31T09:51:34.714Z,100064.30
2022-08-31T09:52:37.403Z,100041.63
2022-08-31T09:53:40.972Z,100049.23
2022-08-31T09:54:47.276Z,100053.13
2022-08-31T09:55:50.327Z,100049.98
2022-08-31T09:56:53.690Z,100061.83
2022-08-31T09:57:56.946Z,100059.86
2022-08-31T09:59:00.305Z,100062.78
2022-08-31T10:00:03.233Z,100067.56
2022-08-31T10:01:07.114Z,100063.84
2022-08-31T10:02:23.320Z,100066.45
2022-08-31T10:03:27.241Z,100064.27
2022-08-31T10:04:30.507Z,100066.80
2022-08-31T10:05:33.957Z,100065.25
2022-08-31T10:06:38.215Z,100063.08
2022-08-31T10:07:47.997Z,100060.71
2022-08-31T10:08:51.770Z,100067.13
2022-08-31T10:10:30.426Z,100062.08
2022-08-31T10:11:18.225Z,100062.56
2022-08-31T10:12:21.992Z,100064.92
2022-08-31T10:13:28.748Z,100063.91
2022-08-31T10:14:35.558Z,100065.62
2022-08-31T10:15:39.373Z,100072.88
2022-08-31T10:16:46.492Z,100066.11
2022-08-31T10:18:08.332Z,100064.95
2022-08-31T10:19:15.167Z,100067.80
2022-08-31T10:20:18.981Z,100067.81
2022-08-31T10:21:22.903Z,100067.28
2022-08-31T10:23:47.349Z,100057.47
2022-08-31T10:24:51.607Z,100061.39
2022-08-31T10:25:55.460Z,100059.24
2022-08-31T10:27:02.033Z,100054.77
2022-08-31T10:28:05.842Z,100052.92
2022-08-31T10:29:10.297Z,100058.51
2022-08-31T10:30:23.816Z,100065.80
2022-08-31T10:31:30.397Z,100058.30
2022-08-31T10:32:36.949Z,100070.72
2022-08-31T10:33:40.985Z,100062.19
2022-08-31T10:34:44.447Z,100064.62
2022-08-31T10:35:51.116Z,100070.81
2022-08-31T10:36:55.360Z,100061.94
2022-08-31T10:38:04.943Z,100055.98
2022-08-31T10:39:09.071Z,100053.53
2022-08-31T10:40:13.389Z,100053.70
2022-08-31T10:41:17.382Z,100052.12
2022-08-31T10:42:27.419Z,100053.41
2022-08-31T10:43:37.633Z,100045.70
2022-08-31T10:44:41.354Z,100051.53
2022-08-31T10:45:49.359Z,100046.36
2022-08-31T10:46:52.155Z,100047.22
2022-08-31T10:47:55.204Z,100048.41
2022-08-31T10:48:57.858Z,100056.64
2022-08-31T10:50:00.308Z,100057.29
2022-08-31T10:51:07.196Z,100056.49
2022-08-31T10:52:15.855Z,100041.97
2022-08-31T10:53:22.394Z,100049.05
2022-08-31T10:54:42.995Z,100050.23
2022-08-31T10:55:56.014Z,100054.14
2022-08-31T10:57:21.405Z,100059.36
2022-08-31T10:58:22.297Z,100049.57
2022-08-31T10:59:41.052Z,100047.02
2022-08-31T11:00:52.503Z,100046.65
2022-08-31T11:02:02.348Z,100049.20
2022-08-31T11:03:15.319Z,100058.69
2022-08-31T11:04:21.881Z,100054.27
2022-08-31T11:05:25.807Z,100044.33
2022-08-31T11:06:32.955Z,100042.79
2022-08-31T11:07:36.675Z,100051.44
2022-08-31T11:08:43.438Z,100038.95
2022-08-31T11:09:47.247Z,100042.33
2022-08-31T11:10:51.019Z,100043.86
2022-08-31T11:12:01.015Z,100051.11
2022-08-31T11:13:05.870Z,100055.98
2022-08-31T11:14:09.606Z,100055.98
2022-08-31T11:15:13.357Z,100049.25
2022-08-31T11:16:23.543Z,100045.69
2022-08-31T11:17:33.545Z,100051.62
2022-08-31T11:18:55.385Z,100059.55
2022-08-31T11:20:08.244Z,100040.44
2022-08-31T11:21:24.729Z,100042.13
2022-08-31T11:22:34.365Z,100040.59
2022-08-31T11:23:42.265Z,100037.70
2022-08-31T11:25:00.529Z,100038.55
2022-08-31T11:26:22.456Z,100038.77
2022-08-31T11:27:29.176Z,100036.58
2022-08-31T11:28:33.109Z,100042.81
2022-08-31T11:29:49.268Z,100042.80
2022-08-31T11:30:51.571Z,100039.77
2022-08-31T11:31:55.935Z,100045.17
2022-08-31T11:33:05.822Z,100043.14
2022-08-31T11:34:16.407Z,100048.24
2022-08-31T11:35:42.290Z,100043.17
2022-08-31T11:36:49.418Z,100053.13
2022-08-31T11:37:52.481Z,100039.95
2022-08-31T11:39:02.365Z,100047.05
2022-08-31T11:40:06.390Z,100042.14
2022-08-31T11:41:08.596Z,100039.09
2022-08-31T11:42:12.501Z,100038.12
2022-08-31T11:43:17.001Z,100035.08
2022-08-31T11:44:29.905Z,100034.72
2022-08-31T11:45:33.668Z,100030.63
2022-08-31T11:46:38.554Z,100037.56
2022-08-31T11:47:42.025Z,100033.36
2022-08-31T11:48:55.139Z,100036.39
2022-08-31T11:49:59.140Z,100041.98
2022-08-31T11:51:02.959Z,100037.73
2022-08-31T11:52:06.724Z,100036.35
2022-08-31T11:53:19.709Z,100033.36
2022-08-31T11:54:23.864Z,100039.09
2022-08-31T11:55:29.989Z,100036.01
2022-08-31T11:56:34.421Z,100032.27
2022-08-31T11:57:55.152Z,100034.38
2022-08-31T11:58:59.238Z,100026.70
2022-08-31T12:00:01.719Z,100035.22
2022-08-31T12:01:06.345Z,100031.84
2022-08-31T12:02:23.062Z,100018.59
2022-08-31T12:03:33.016Z,100013.01
2022-08-31T12:04:36.750Z,100022.04
2022-08-31T12:05:47.037Z,100019.02
2022-08-31T12:06:50.849Z,100004.36
2022-08-31T12:07:52.978Z,100014.75
2022-08-31T12:09:03.344Z,100009.29
2022-08-31T12:10:11.041Z,100004.12